Virtual Norwegian is not affiliated with Norwegian Air Shuttle in any way.
If you are looking for the real "Norwegian", or you wish to book Norwegian flights, please visit Norwegian.com


We use cookies to ensure you get the best experience on our website.   ACCEPT

SACO - COR - Cordoba (Ambrosio L V Taravella)

General Info Alternate Airport
ICAO: SACO Elevation: 1604 ft ICAO: SAAR
IATA: COR Country: Argentina IATA: ROS
City: Cordoba Charts: Log in to view charts City: Rosario
Name: Ambrosio L V Taravella Hub: No Name Rosario
General Info
ICAO: SACO
IATA: COR
City: Cordoba
Name: Ambrosio L V Taravella
Elevation: 1604 ft
Country: Argentina
Charts: Log in to view charts
Hub: No
 
Alternate Airport
ICAO: SAAR
IATA: ROS
City: Rosario
Name: Rosario

Weather
191400Z 14004KT 9999 FEW030 SCT200 25/16 Q1019 NOSIG
Weather
191400Z 14004KT 9999 FEW030 SCT200 25/16 Q1019 NOSIG

NOTAMs
NOTAMs currently unavailable.
NOTAMs
NOTAMs currently unavailable

Route map
Airport
Airport (hub)